KOKC/OKC METAR and TAF weather

Enter ICAO airport designator
Station Type Date Time Source
KOKC METAR 2022/09/28 17:52 UTC NOAA

KOKC 281752Z 25004KT 10SM FEW250 28/08 A3021 RMK AO2 SLP218 T02830078 10289 20150 58002


Station Type Date Time Source
KOKC Decoded METAR 2022/09/28 17:52 UTC NOAA

WILL ROGERS WORLD AIRPORT, OK, United States (KOKC) 35-23N 97-36W 390M
Sep 28, 2022 - 01:52 PM EDT / 2022.09.28 1752 UTC
Wind: from the WSW (250 degrees) at 5 MPH (4 KT):0
Visibility: 10 mile(s):0
Sky conditions: mostly clear
Temperature: 82.9 F (28.3 C)
Dew Point: 46.0 F (7.8 C)
Relative Humidity: 27%
Pressure (altimeter): 30.21 in. Hg (1023 hPa)
Pressure tendency: 0.01 inches (0.2 hPa) lower than three hours ago
ob: KOKC 281752Z 25004KT 10SM FEW250 28/08 A3021 RMK AO2 SLP218 T02830078 10289 20150 58002
cycle: 18

Station Type Date Time Source
KOKC TAF 2022/09/28 18:22 UTC NOAA

TAF KOKC 281720Z 2818/2918 19008KT P6SM SKC
FM290300 11008KT P6SM SKC
FM291200 15012KT P6SM SKC

Example: see airport list